sensor_id;sensor_type;location;lat;lon;timestamp;P1;durP1;ratioP1;P2;durP2;ratioP2
1358;SDS011;673;48.098;14.422;2022-11-20T00:01:28;27.20;;;15.63;;
1358;SDS011;673;48.098;14.422;2022-11-20T00:03:56;31.67;;;18.70;;
1358;SDS011;673;48.098;14.422;2022-11-20T00:06:24;31.27;;;17.13;;
1358;SDS011;673;48.098;14.422;2022-11-20T00:08:53;38.63;;;18.37;;
1358;SDS011;673;48.098;14.422;2022-11-20T00:11:23;32.43;;;17.50;;
1358;SDS011;673;48.098;14.422;2022-11-20T00:13:51;26.90;;;16.43;;
1358;SDS011;673;48.098;14.422;2022-11-20T00:16:21;39.10;;;17.53;;
1358;SDS011;673;48.098;14.422;2022-11-20T00:18:49;30.80;;;15.27;;
1358;SDS011;673;48.098;14.422;2022-11-20T00:21:16;34.10;;;17.20;;
1358;SDS011;673;48.098;14.422;2022-11-20T00:23:45;31.53;;;18.17;;
1358;SDS011;673;48.098;14.422;2022-11-20T00:26:13;27.53;;;15.20;;
1358;SDS011;673;48.098;14.422;2022-11-20T00:28:43;32.93;;;17.87;;
1358;SDS011;673;48.098;14.422;2022-11-20T00:31:15;29.80;;;15.60;;
1358;SDS011;673;48.098;14.422;2022-11-20T00:33:43;30.77;;;15.70;;
1358;SDS011;673;48.098;14.422;2022-11-20T00:36:11;26.20;;;15.30;;
1358;SDS011;673;48.098;14.422;2022-11-20T00:38:39;36.30;;;17.70;;
1358;SDS011;673;48.098;14.422;2022-11-20T00:41:07;31.27;;;14.90;;
1358;SDS011;673;48.098;14.422;2022-11-20T00:43:35;32.50;;;18.40;;
1358;SDS011;673;48.098;14.422;2022-11-20T00:46:04;29.70;;;18.77;;
1358;SDS011;673;48.098;14.422;2022-11-20T00:48:33;31.40;;;16.63;;
1358;SDS011;673;48.098;14.422;2022-11-20T00:51:01;34.70;;;18.50;;
1358;SDS011;673;48.098;14.422;2022-11-20T00:53:28;28.50;;;16.00;;
1358;SDS011;673;48.098;14.422;2022-11-20T00:55:55;35.90;;;17.93;;
1358;SDS011;673;48.098;14.422;2022-11-20T00:58:24;26.20;;;15.67;;
1358;SDS011;673;48.098;14.422;2022-11-20T01:00:54;34.67;;;17.70;;
1358;SDS011;673;48.098;14.422;2022-11-20T01:03:30;30.80;;;16.43;;
1358;SDS011;673;48.098;14.422;2022-11-20T01:05:59;31.70;;;16.80;;
1358;SDS011;673;48.098;14.422;2022-11-20T01:08:28;28.90;;;17.77;;
1358;SDS011;673;48.098;14.422;2022-11-20T01:10:58;34.30;;;16.67;;
1358;SDS011;673;48.098;14.422;2022-11-20T01:13:25;28.40;;;16.70;;
1358;SDS011;673;48.098;14.422;2022-11-20T01:16:06;32.60;;;16.80;;
1358;SDS011;673;48.098;14.422;2022-11-20T01:18:36;32.83;;;17.73;;
1358;SDS011;673;48.098;14.422;2022-11-20T01:21:05;26.00;;;14.47;;
1358;SDS011;673;48.098;14.422;2022-11-20T01:23:33;32.73;;;16.20;;
1358;SDS011;673;48.098;14.422;2022-11-20T01:26:02;31.70;;;17.27;;
1358;SDS011;673;48.098;14.422;2022-11-20T01:28:31;30.53;;;18.07;;
1358;SDS011;673;48.098;14.422;2022-11-20T01:30:58;33.43;;;17.43;;
1358;SDS011;673;48.098;14.422;2022-11-20T01:33:25;36.33;;;18.77;;
1358;SDS011;673;48.098;14.422;2022-11-20T01:36:02;32.23;;;15.80;;
1358;SDS011;673;48.098;14.422;2022-11-20T01:38:30;34.17;;;17.87;;
1358;SDS011;673;48.098;14.422;2022-11-20T01:40:57;29.03;;;18.20;;
1358;SDS011;673;48.098;14.422;2022-11-20T01:43:24;35.10;;;16.50;;
1358;SDS011;673;48.098;14.422;2022-11-20T01:46:04;32.60;;;16.20;;
1358;SDS011;673;48.098;14.422;2022-11-20T01:48:42;26.40;;;15.50;;
1358;SDS011;673;48.098;14.422;2022-11-20T01:51:18;31.57;;;18.37;;
1358;SDS011;673;48.098;14.422;2022-11-20T01:53:49;30.80;;;16.77;;
1358;SDS011;673;48.098;14.422;2022-11-20T01:56:18;24.40;;;15.50;;
1358;SDS011;673;48.098;14.422;2022-11-20T01:58:46;30.70;;;18.40;;
1358;SDS011;673;48.098;14.422;2022-11-20T02:01:17;34.20;;;16.37;;
1358;SDS011;673;48.098;14.422;2022-11-20T02:03:44;37.20;;;17.60;;
1358;SDS011;673;48.098;14.422;2022-11-20T02:06:13;36.40;;;17.97;;
1358;SDS011;673;48.098;14.422;2022-11-20T02:08:45;31.93;;;15.63;;
1358;SDS011;673;48.098;14.422;2022-11-20T02:11:12;33.43;;;18.80;;
1358;SDS011;673;48.098;14.422;2022-11-20T02:13:39;36.80;;;17.90;;
1358;SDS011;673;48.098;14.422;2022-11-20T02:16:13;28.60;;;16.93;;
1358;SDS011;673;48.098;14.422;2022-11-20T02:18:43;32.20;;;18.27;;
1358;SDS011;673;48.098;14.422;2022-11-20T02:21:13;34.43;;;16.70;;
1358;SDS011;673;48.098;14.422;2022-11-20T02:24:00;26.87;;;16.20;;
1358;SDS011;673;48.098;14.422;2022-11-20T02:26:30;24.17;;;13.40;;
1358;SDS011;673;48.098;14.422;2022-11-20T02:28:58;23.87;;;14.00;;
1358;SDS011;673;48.098;14.422;2022-11-20T02:31:26;29.63;;;16.43;;
1358;SDS011;673;48.098;14.422;2022-11-20T02:33:54;29.07;;;15.83;;
1358;SDS011;673;48.098;14.422;2022-11-20T02:36:22;27.30;;;15.00;;
1358;SDS011;673;48.098;14.422;2022-11-20T02:38:52;27.23;;;15.17;;
1358;SDS011;673;48.098;14.422;2022-11-20T02:41:20;26.40;;;14.80;;
1358;SDS011;673;48.098;14.422;2022-11-20T02:43:48;29.03;;;15.87;;
1358;SDS011;673;48.098;14.422;2022-11-20T02:46:15;27.67;;;15.07;;
1358;SDS011;673;48.098;14.422;2022-11-20T02:48:42;28.10;;;14.57;;
1358;SDS011;673;48.098;14.422;2022-11-20T02:51:08;32.30;;;16.70;;
1358;SDS011;673;48.098;14.422;2022-11-20T02:53:35;29.60;;;13.60;;
1358;SDS011;673;48.098;14.422;2022-11-20T02:56:02;33.23;;;16.87;;
1358;SDS011;673;48.098;14.422;2022-11-20T02:58:31;24.30;;;14.10;;
1358;SDS011;673;48.098;14.422;2022-11-20T03:00:58;39.60;;;16.87;;
1358;SDS011;673;48.098;14.422;2022-11-20T03:03:25;24.20;;;14.80;;
1358;SDS011;673;48.098;14.422;2022-11-20T03:05:52;30.87;;;16.60;;
1358;SDS011;673;48.098;14.422;2022-11-20T03:08:19;32.23;;;15.20;;
1358;SDS011;673;48.098;14.422;2022-11-20T03:10:46;23.13;;;13.30;;
1358;SDS011;673;48.098;14.422;2022-11-20T03:13:13;26.03;;;15.37;;
1358;SDS011;673;48.098;14.422;2022-11-20T03:15:41;24.97;;;14.57;;
1358;SDS011;673;48.098;14.422;2022-11-20T03:18:08;26.80;;;14.90;;
1358;SDS011;673;48.098;14.422;2022-11-20T03:20:35;26.10;;;14.57;;
1358;SDS011;673;48.098;14.422;2022-11-20T03:23:02;26.07;;;15.47;;
1358;SDS011;673;48.098;14.422;2022-11-20T03:25:29;28.13;;;14.90;;
1358;SDS011;673;48.098;14.422;2022-11-20T03:27:56;28.10;;;13.87;;
1358;SDS011;673;48.098;14.422;2022-11-20T03:30:23;23.97;;;14.00;;
1358;SDS011;673;48.098;14.422;2022-11-20T03:32:53;27.93;;;15.10;;
1358;SDS011;673;48.098;14.422;2022-11-20T03:35:21;24.73;;;14.67;;
1358;SDS011;673;48.098;14.422;2022-11-20T03:37:47;31.43;;;14.77;;
1358;SDS011;673;48.098;14.422;2022-11-20T03:40:14;27.53;;;15.30;;
1358;SDS011;673;48.098;14.422;2022-11-20T03:42:41;31.50;;;16.87;;
1358;SDS011;673;48.098;14.422;2022-11-20T03:45:11;26.17;;;15.50;;
1358;SDS011;673;48.098;14.422;2022-11-20T03:47:39;24.60;;;14.90;;
1358;SDS011;673;48.098;14.422;2022-11-20T03:50:08;27.93;;;15.03;;
1358;SDS011;673;48.098;14.422;2022-11-20T03:52:36;28.73;;;15.03;;
1358;SDS011;673;48.098;14.422;2022-11-20T03:55:03;32.27;;;13.57;;
1358;SDS011;673;48.098;14.422;2022-11-20T03:57:31;24.90;;;13.00;;
1358;SDS011;673;48.098;14.422;2022-11-20T03:59:58;29.77;;;17.30;;
1358;SDS011;673;48.098;14.422;2022-11-20T04:02:25;23.17;;;14.40;;
1358;SDS011;673;48.098;14.422;2022-11-20T04:04:52;29.57;;;17.33;;
1358;SDS011;673;48.098;14.422;2022-11-20T04:07:20;26.47;;;15.23;;
1358;SDS011;673;48.098;14.422;2022-11-20T04:09:47;26.90;;;14.63;;
1358;SDS011;673;48.098;14.422;2022-11-20T04:12:14;29.90;;;15.90;;
1358;SDS011;673;48.098;14.422;2022-11-20T04:14:41;26.73;;;15.77;;
1358;SDS011;673;48.098;14.422;2022-11-20T04:17:08;31.87;;;16.87;;
1358;SDS011;673;48.098;14.422;2022-11-20T04:19:35;36.13;;;15.97;;
1358;SDS011;673;48.098;14.422;2022-11-20T04:22:02;25.23;;;15.37;;
1358;SDS011;673;48.098;14.422;2022-11-20T04:24:30;25.67;;;14.77;;
1358;SDS011;673;48.098;14.422;2022-11-20T04:26:57;32.37;;;16.93;;
1358;SDS011;673;48.098;14.422;2022-11-20T04:29:24;28.67;;;17.37;;
1358;SDS011;673;48.098;14.422;2022-11-20T04:31:51;25.87;;;13.67;;
1358;SDS011;673;48.098;14.422;2022-11-20T04:34:18;30.93;;;14.93;;
1358;SDS011;673;48.098;14.422;2022-11-20T04:36:45;25.27;;;15.67;;
1358;SDS011;673;48.098;14.422;2022-11-20T04:39:12;27.53;;;16.67;;
1358;SDS011;673;48.098;14.422;2022-11-20T04:41:41;26.80;;;15.27;;
1358;SDS011;673;48.098;14.422;2022-11-20T04:44:08;29.80;;;16.70;;
1358;SDS011;673;48.098;14.422;2022-11-20T04:46:36;29.33;;;14.67;;
1358;SDS011;673;48.098;14.422;2022-11-20T04:49:04;31.97;;;16.67;;
1358;SDS011;673;48.098;14.422;2022-11-20T04:51:31;29.67;;;16.30;;
1358;SDS011;673;48.098;14.422;2022-11-20T04:53:58;22.63;;;14.30;;
1358;SDS011;673;48.098;14.422;2022-11-20T04:56:26;27.30;;;15.57;;
1358;SDS011;673;48.098;14.422;2022-11-20T04:58:54;25.90;;;14.50;;
1358;SDS011;673;48.098;14.422;2022-11-20T05:01:22;30.13;;;17.90;;
1358;SDS011;673;48.098;14.422;2022-11-20T05:03:50;23.77;;;13.80;;
1358;SDS011;673;48.098;14.422;2022-11-20T05:06:18;28.23;;;17.73;;
1358;SDS011;673;48.098;14.422;2022-11-20T05:08:46;29.07;;;14.30;;
1358;SDS011;673;48.098;14.422;2022-11-20T05:11:15;28.17;;;15.93;;
1358;SDS011;673;48.098;14.422;2022-11-20T05:13:43;28.03;;;14.67;;
1358;SDS011;673;48.098;14.422;2022-11-20T05:16:12;29.87;;;15.63;;
1358;SDS011;673;48.098;14.422;2022-11-20T05:18:40;32.20;;;16.00;;
1358;SDS011;673;48.098;14.422;2022-11-20T05:21:08;30.03;;;15.83;;
1358;SDS011;673;48.098;14.422;2022-11-20T05:23:36;36.27;;;17.07;;
1358;SDS011;673;48.098;14.422;2022-11-20T05:26:03;30.07;;;15.70;;
1358;SDS011;673;48.098;14.422;2022-11-20T05:28:31;28.90;;;16.37;;
1358;SDS011;673;48.098;14.422;2022-11-20T05:31:03;24.93;;;15.90;;
1358;SDS011;673;48.098;14.422;2022-11-20T05:33:33;26.27;;;16.20;;
1358;SDS011;673;48.098;14.422;2022-11-20T05:36:01;27.03;;;16.20;;
1358;SDS011;673;48.098;14.422;2022-11-20T05:38:28;26.85;;;16.45;;
1358;SDS011;673;48.098;14.422;2022-11-20T05:41:02;27.13;;;16.27;;
1358;SDS011;673;48.098;14.422;2022-11-20T05:43:31;32.87;;;16.80;;
1358;SDS011;673;48.098;14.422;2022-11-20T05:45:59;26.23;;;14.20;;
1358;SDS011;673;48.098;14.422;2022-11-20T05:48:27;28.67;;;15.60;;
1358;SDS011;673;48.098;14.422;2022-11-20T05:50:56;26.50;;;14.23;;
1358;SDS011;673;48.098;14.422;2022-11-20T05:53:23;27.73;;;14.23;;
1358;SDS011;673;48.098;14.422;2022-11-20T05:55:55;27.38;;;17.42;;
1358;SDS011;673;48.098;14.422;2022-11-20T05:58:23;29.60;;;16.73;;
1358;SDS011;673;48.098;14.422;2022-11-20T06:00:50;32.67;;;17.57;;
1358;SDS011;673;48.098;14.422;2022-11-20T06:03:17;35.80;;;17.37;;
1358;SDS011;673;48.098;14.422;2022-11-20T06:05:44;28.43;;;16.00;;
1358;SDS011;673;48.098;14.422;2022-11-20T06:08:12;35.07;;;17.20;;
1358;SDS011;673;48.098;14.422;2022-11-20T06:10:39;25.37;;;15.10;;
1358;SDS011;673;48.098;14.422;2022-11-20T06:13:06;28.13;;;15.40;;
1358;SDS011;673;48.098;14.422;2022-11-20T06:15:33;32.40;;;17.00;;
1358;SDS011;673;48.098;14.422;2022-11-20T06:18:00;27.03;;;16.03;;
1358;SDS011;673;48.098;14.422;2022-11-20T06:20:27;35.20;;;16.77;;
1358;SDS011;673;48.098;14.422;2022-11-20T06:22:54;27.70;;;16.43;;
1358;SDS011;673;48.098;14.422;2022-11-20T06:25:22;27.13;;;17.50;;
1358;SDS011;673;48.098;14.422;2022-11-20T06:27:49;56.87;;;30.37;;
1358;SDS011;673;48.098;14.422;2022-11-20T06:30:16;79.20;;;45.50;;
1358;SDS011;673;48.098;14.422;2022-11-20T06:32:43;65.17;;;36.63;;
1358;SDS011;673;48.098;14.422;2022-11-20T06:35:10;51.23;;;28.30;;
1358;SDS011;673;48.098;14.422;2022-11-20T06:37:37;37.13;;;22.00;;
1358;SDS011;673;48.098;14.422;2022-11-20T06:40:04;31.17;;;18.70;;
1358;SDS011;673;48.098;14.422;2022-11-20T06:42:34;28.43;;;16.73;;
1358;SDS011;673;48.098;14.422;2022-11-20T06:45:00;25.77;;;14.17;;
1358;SDS011;673;48.098;14.422;2022-11-20T06:47:27;29.80;;;16.37;;
1358;SDS011;673;48.098;14.422;2022-11-20T06:49:54;32.13;;;16.93;;
1358;SDS011;673;48.098;14.422;2022-11-20T06:52:21;28.27;;;16.17;;
1358;SDS011;673;48.098;14.422;2022-11-20T06:54:48;29.20;;;16.63;;
1358;SDS011;673;48.098;14.422;2022-11-20T06:57:15;31.47;;;16.13;;
1358;SDS011;673;48.098;14.422;2022-11-20T06:59:44;30.83;;;17.57;;
1358;SDS011;673;48.098;14.422;2022-11-20T07:02:10;31.17;;;16.63;;
1358;SDS011;673;48.098;14.422;2022-11-20T07:04:38;37.47;;;21.10;;
1358;SDS011;673;48.098;14.422;2022-11-20T07:07:05;30.63;;;16.17;;
1358;SDS011;673;48.098;14.422;2022-11-20T07:09:32;26.63;;;15.50;;
1358;SDS011;673;48.098;14.422;2022-11-20T07:11:59;27.77;;;16.47;;
1358;SDS011;673;48.098;14.422;2022-11-20T07:14:26;30.50;;;17.50;;
1358;SDS011;673;48.098;14.422;2022-11-20T07:16:55;34.00;;;17.53;;
1358;SDS011;673;48.098;14.422;2022-11-20T07:19:22;29.07;;;18.70;;
1358;SDS011;673;48.098;14.422;2022-11-20T07:21:49;32.77;;;16.93;;
1358;SDS011;673;48.098;14.422;2022-11-20T07:24:16;31.67;;;16.03;;
1358;SDS011;673;48.098;14.422;2022-11-20T07:26:45;29.90;;;16.60;;
1358;SDS011;673;48.098;14.422;2022-11-20T07:29:13;33.37;;;19.60;;
1358;SDS011;673;48.098;14.422;2022-11-20T07:31:41;32.80;;;18.40;;
1358;SDS011;673;48.098;14.422;2022-11-20T07:34:10;29.13;;;15.77;;
1358;SDS011;673;48.098;14.422;2022-11-20T07:36:37;30.40;;;17.20;;
1358;SDS011;673;48.098;14.422;2022-11-20T07:39:04;27.10;;;16.93;;
1358;SDS011;673;48.098;14.422;2022-11-20T07:41:31;29.33;;;16.73;;
1358;SDS011;673;48.098;14.422;2022-11-20T07:43:58;29.97;;;18.20;;
1358;SDS011;673;48.098;14.422;2022-11-20T07:46:25;30.87;;;17.67;;
1358;SDS011;673;48.098;14.422;2022-11-20T07:48:51;25.57;;;15.30;;
1358;SDS011;673;48.098;14.422;2022-11-20T07:51:20;25.37;;;14.73;;
1358;SDS011;673;48.098;14.422;2022-11-20T07:53:47;20.87;;;12.40;;
1358;SDS011;673;48.098;14.422;2022-11-20T07:56:16;25.07;;;13.30;;
1358;SDS011;673;48.098;14.422;2022-11-20T07:58:43;23.87;;;14.57;;
1358;SDS011;673;48.098;14.422;2022-11-20T08:01:10;27.97;;;17.47;;
1358;SDS011;673;48.098;14.422;2022-11-20T08:03:37;24.43;;;14.47;;
1358;SDS011;673;48.098;14.422;2022-11-20T08:06:04;22.57;;;15.20;;
1358;SDS011;673;48.098;14.422;2022-11-20T08:08:33;19.33;;;12.70;;
1358;SDS011;673;48.098;14.422;2022-11-20T08:10:59;31.57;;;15.80;;
1358;SDS011;673;48.098;14.422;2022-11-20T08:13:40;25.23;;;14.97;;
1358;SDS011;673;48.098;14.422;2022-11-20T08:16:27;22.03;;;13.80;;
1358;SDS011;673;48.098;14.422;2022-11-20T08:18:54;22.50;;;15.17;;
1358;SDS011;673;48.098;14.422;2022-11-20T08:21:21;19.30;;;12.43;;
1358;SDS011;673;48.098;14.422;2022-11-20T08:23:50;30.87;;;15.03;;
1358;SDS011;673;48.098;14.422;2022-11-20T08:26:17;25.03;;;14.20;;
1358;SDS011;673;48.098;14.422;2022-11-20T08:28:44;25.47;;;15.70;;
1358;SDS011;673;48.098;14.422;2022-11-20T08:31:11;22.43;;;14.47;;
1358;SDS011;673;48.098;14.422;2022-11-20T08:33:38;33.87;;;16.43;;
1358;SDS011;673;48.098;14.422;2022-11-20T08:36:05;24.83;;;14.77;;
1358;SDS011;673;48.098;14.422;2022-11-20T08:38:33;28.20;;;17.50;;
1358;SDS011;673;48.098;14.422;2022-11-20T08:41:02;25.57;;;15.53;;
1358;SDS011;673;48.098;14.422;2022-11-20T08:43:47;28.30;;;16.83;;
1358;SDS011;673;48.098;14.422;2022-11-20T08:46:14;28.07;;;16.60;;
1358;SDS011;673;48.098;14.422;2022-11-20T08:48:42;33.37;;;17.63;;
1358;SDS011;673;48.098;14.422;2022-11-20T08:51:10;26.57;;;15.57;;
1358;SDS011;673;48.098;14.422;2022-11-20T08:53:38;31.77;;;16.93;;
1358;SDS011;673;48.098;14.422;2022-11-20T08:56:07;24.93;;;16.00;;
1358;SDS011;673;48.098;14.422;2022-11-20T08:58:34;27.93;;;16.13;;
1358;SDS011;673;48.098;14.422;2022-11-20T09:01:01;27.07;;;15.70;;
1358;SDS011;673;48.098;14.422;2022-11-20T09:03:28;27.10;;;15.77;;
1358;SDS011;673;48.098;14.422;2022-11-20T09:05:59;30.37;;;19.47;;
1358;SDS011;673;48.098;14.422;2022-11-20T09:08:26;26.63;;;15.13;;
1358;SDS011;673;48.098;14.422;2022-11-20T09:10:54;30.63;;;17.93;;
1358;SDS011;673;48.098;14.422;2022-11-20T09:13:24;24.60;;;13.70;;
1358;SDS011;673;48.098;14.422;2022-11-20T09:15:52;21.60;;;15.70;;
1358;SDS011;673;48.098;14.422;2022-11-20T09:18:20;28.10;;;16.90;;
1358;SDS011;673;48.098;14.422;2022-11-20T09:20:47;32.03;;;17.00;;
1358;SDS011;673;48.098;14.422;2022-11-20T09:23:14;30.83;;;18.00;;
1358;SDS011;673;48.098;14.422;2022-11-20T09:25:42;27.30;;;17.00;;
1358;SDS011;673;48.098;14.422;2022-11-20T09:28:09;25.23;;;17.10;;
1358;SDS011;673;48.098;14.422;2022-11-20T09:30:37;26.80;;;15.43;;
1358;SDS011;673;48.098;14.422;2022-11-20T09:33:04;29.60;;;14.97;;
1358;SDS011;673;48.098;14.422;2022-11-20T09:35:32;25.47;;;14.13;;
1358;SDS011;673;48.098;14.422;2022-11-20T09:38:03;23.90;;;15.03;;
1358;SDS011;673;48.098;14.422;2022-11-20T09:40:33;21.07;;;14.03;;
1358;SDS011;673;48.098;14.422;2022-11-20T09:43:16;28.10;;;16.00;;
1358;SDS011;673;48.098;14.422;2022-11-20T09:45:56;24.00;;;15.70;;
1358;SDS011;673;48.098;14.422;2022-11-20T09:48:34;35.07;;;19.70;;
1358;SDS011;673;48.098;14.422;2022-11-20T09:51:12;27.70;;;16.57;;
1358;SDS011;673;48.098;14.422;2022-11-20T09:53:53;35.47;;;18.40;;
1358;SDS011;673;48.098;14.422;2022-11-20T09:56:33;33.17;;;19.23;;
1358;SDS011;673;48.098;14.422;2022-11-20T09:59:03;30.80;;;20.10;;
1358;SDS011;673;48.098;14.422;2022-11-20T10:01:35;33.77;;;17.83;;
1358;SDS011;673;48.098;14.422;2022-11-20T10:04:08;50.83;;;23.00;;
1358;SDS011;673;48.098;14.422;2022-11-20T10:06:43;31.53;;;17.90;;
1358;SDS011;673;48.098;14.422;2022-11-20T10:09:20;28.77;;;18.33;;
1358;SDS011;673;48.098;14.422;2022-11-20T10:11:56;23.40;;;15.00;;
1358;SDS011;673;48.098;14.422;2022-11-20T10:14:38;32.60;;;19.43;;
1358;SDS011;673;48.098;14.422;2022-11-20T10:17:21;30.93;;;16.33;;
1358;SDS011;673;48.098;14.422;2022-11-20T10:20:02;24.50;;;15.30;;
1358;SDS011;673;48.098;14.422;2022-11-20T10:22:44;29.30;;;18.73;;
1358;SDS011;673;48.098;14.422;2022-11-20T10:25:18;30.20;;;16.30;;
1358;SDS011;673;48.098;14.422;2022-11-20T10:27:53;26.77;;;16.63;;
1358;SDS011;673;48.098;14.422;2022-11-20T10:30:34;33.90;;;18.10;;
1358;SDS011;673;48.098;14.422;2022-11-20T10:33:10;28.43;;;16.73;;
1358;SDS011;673;48.098;14.422;2022-11-20T10:35:42;27.60;;;15.90;;
1358;SDS011;673;48.098;14.422;2022-11-20T10:38:17;27.13;;;15.43;;
1358;SDS011;673;48.098;14.422;2022-11-20T10:40:48;30.27;;;19.53;;
1358;SDS011;673;48.098;14.422;2022-11-20T10:43:19;26.83;;;19.03;;
1358;SDS011;673;48.098;14.422;2022-11-20T10:45:52;29.20;;;17.70;;
1358;SDS011;673;48.098;14.422;2022-11-20T10:48:24;31.00;;;18.67;;
1358;SDS011;673;48.098;14.422;2022-11-20T10:50:57;32.33;;;20.43;;
1358;SDS011;673;48.098;14.422;2022-11-20T10:53:42;33.10;;;19.70;;
1358;SDS011;673;48.098;14.422;2022-11-20T10:56:31;26.40;;;16.80;;
1358;SDS011;673;48.098;14.422;2022-11-20T10:59:11;21.93;;;14.97;;
1358;SDS011;673;48.098;14.422;2022-11-20T11:02:12;28.40;;;15.40;;
1358;SDS011;673;48.098;14.422;2022-11-20T11:04:44;25.33;;;16.50;;
1358;SDS011;673;48.098;14.422;2022-11-20T11:07:13;27.43;;;17.40;;
1358;SDS011;673;48.098;14.422;2022-11-20T11:09:43;23.10;;;15.70;;
1358;SDS011;673;48.098;14.422;2022-11-20T11:12:13;4.50;;;3.30;;
1358;SDS011;673;48.098;14.422;2022-11-20T11:14:45;3.17;;;1.60;;
1358;SDS011;673;48.098;14.422;2022-11-20T11:17:18;1.30;;;0.60;;
1358;SDS011;673;48.098;14.422;2022-11-20T11:20:04;1.20;;;0.87;;
1358;SDS011;673;48.098;14.422;2022-11-20T11:22:42;0.60;;;0.40;;
1358;SDS011;673;48.098;14.422;2022-11-20T11:25:18;1.60;;;0.60;;
1358;SDS011;673;48.098;14.422;2022-11-20T11:27:56;0.97;;;0.60;;
1358;SDS011;673;48.098;14.422;2022-11-20T11:30:25;6.67;;;4.60;;
1358;SDS011;673;48.098;14.422;2022-11-20T11:33:02;10.57;;;7.23;;
1358;SDS011;673;48.098;14.422;2022-11-20T11:35:33;10.43;;;7.37;;
1358;SDS011;673;48.098;14.422;2022-11-20T11:38:06;7.07;;;5.27;;
1358;SDS011;673;48.098;14.422;2022-11-20T11:40:37;6.53;;;5.10;;
1358;SDS011;673;48.098;14.422;2022-11-20T11:43:07;8.57;;;5.37;;
1358;SDS011;673;48.098;14.422;2022-11-20T11:46:08;8.83;;;7.17;;
1358;SDS011;673;48.098;14.422;2022-11-20T11:48:58;9.73;;;6.60;;
1358;SDS011;673;48.098;14.422;2022-11-20T11:51:29;8.80;;;6.07;;
1358;SDS011;673;48.098;14.422;2022-11-20T11:54:01;7.57;;;5.33;;
1358;SDS011;673;48.098;14.422;2022-11-20T11:56:31;7.63;;;5.33;;
1358;SDS011;673;48.098;14.422;2022-11-20T11:59:00;9.90;;;6.27;;
1358;SDS011;673;48.098;14.422;2022-11-20T12:01:36;10.63;;;6.60;;
1358;SDS011;673;48.098;14.422;2022-11-20T12:04:11;9.80;;;5.00;;
1358;SDS011;673;48.098;14.422;2022-11-20T12:06:45;11.00;;;8.87;;
1358;SDS011;673;48.098;14.422;2022-11-20T12:09:14;15.60;;;9.00;;
1358;SDS011;673;48.098;14.422;2022-11-20T12:11:45;7.87;;;5.83;;
1358;SDS011;673;48.098;14.422;2022-11-20T12:14:18;10.40;;;5.77;;
1358;SDS011;673;48.098;14.422;2022-11-20T12:16:52;8.60;;;6.27;;
1358;SDS011;673;48.098;14.422;2022-11-20T12:19:20;13.80;;;10.27;;
1358;SDS011;673;48.098;14.422;2022-11-20T12:21:52;17.20;;;10.30;;
1358;SDS011;673;48.098;14.422;2022-11-20T12:24:34;16.00;;;10.13;;
1358;SDS011;673;48.098;14.422;2022-11-20T12:30:14;20.60;;;13.60;;
1358;SDS011;673;48.098;14.422;2022-11-20T12:32:55;14.37;;;9.43;;
1358;SDS011;673;48.098;14.422;2022-11-20T12:35:37;14.97;;;9.60;;
1358;SDS011;673;48.098;14.422;2022-11-20T12:38:36;20.53;;;12.83;;
1358;SDS011;673;48.098;14.422;2022-11-20T12:41:19;16.37;;;11.50;;
1358;SDS011;673;48.098;14.422;2022-11-20T12:44:13;20.20;;;12.70;;
1358;SDS011;673;48.098;14.422;2022-11-20T12:47:10;16.80;;;12.30;;
1358;SDS011;673;48.098;14.422;2022-11-20T12:49:46;19.80;;;12.50;;
1358;SDS011;673;48.098;14.422;2022-11-20T12:52:20;17.93;;;11.60;;
1358;SDS011;673;48.098;14.422;2022-11-20T12:55:12;19.70;;;12.07;;
1358;SDS011;673;48.098;14.422;2022-11-20T12:57:49;20.90;;;14.50;;
1358;SDS011;673;48.098;14.422;2022-11-20T13:00:19;19.27;;;14.00;;
1358;SDS011;673;48.098;14.422;2022-11-20T13:02:57;21.90;;;13.80;;
1358;SDS011;673;48.098;14.422;2022-11-20T13:05:36;18.40;;;13.53;;
1358;SDS011;673;48.098;14.422;2022-11-20T13:08:11;18.30;;;13.30;;
1358;SDS011;673;48.098;14.422;2022-11-20T13:10:48;16.27;;;11.53;;
1358;SDS011;673;48.098;14.422;2022-11-20T13:13:19;17.17;;;10.43;;
1358;SDS011;673;48.098;14.422;2022-11-20T13:15:53;17.60;;;11.17;;
1358;SDS011;673;48.098;14.422;2022-11-20T13:18:23;16.63;;;11.63;;
1358;SDS011;673;48.098;14.422;2022-11-20T13:20:51;16.40;;;11.20;;
1358;SDS011;673;48.098;14.422;2022-11-20T13:23:24;15.20;;;10.53;;
1358;SDS011;673;48.098;14.422;2022-11-20T13:26:03;21.17;;;11.50;;
1358;SDS011;673;48.098;14.422;2022-11-20T13:28:32;15.30;;;10.40;;
1358;SDS011;673;48.098;14.422;2022-11-20T13:30:59;17.17;;;11.50;;
1358;SDS011;673;48.098;14.422;2022-11-20T13:33:28;14.63;;;10.87;;
1358;SDS011;673;48.098;14.422;2022-11-20T13:35:58;19.10;;;11.10;;
1358;SDS011;673;48.098;14.422;2022-11-20T13:38:27;21.40;;;14.63;;
1358;SDS011;673;48.098;14.422;2022-11-20T13:40:55;17.90;;;14.53;;
1358;SDS011;673;48.098;14.422;2022-11-20T13:43:28;20.60;;;12.93;;
1358;SDS011;673;48.098;14.422;2022-11-20T13:46:01;21.23;;;14.80;;
1358;SDS011;673;48.098;14.422;2022-11-20T13:48:31;26.33;;;15.40;;
1358;SDS011;673;48.098;14.422;2022-11-20T13:51:08;21.43;;;13.60;;
1358;SDS011;673;48.098;14.422;2022-11-20T13:53:55;28.70;;;15.93;;
1358;SDS011;673;48.098;14.422;2022-11-20T13:56:40;16.57;;;13.17;;
1358;SDS011;673;48.098;14.422;2022-11-20T13:59:20;24.20;;;17.20;;
1358;SDS011;673;48.098;14.422;2022-11-20T14:01:58;25.23;;;15.03;;
1358;SDS011;673;48.098;14.422;2022-11-20T14:04:27;21.70;;;13.90;;
1358;SDS011;673;48.098;14.422;2022-11-20T14:06:59;22.70;;;13.97;;
1358;SDS011;673;48.098;14.422;2022-11-20T14:09:27;21.53;;;15.33;;
1358;SDS011;673;48.098;14.422;2022-11-20T14:11:55;18.47;;;13.60;;
1358;SDS011;673;48.098;14.422;2022-11-20T14:14:24;23.23;;;14.17;;
1358;SDS011;673;48.098;14.422;2022-11-20T14:16:52;22.47;;;14.47;;
1358;SDS011;673;48.098;14.422;2022-11-20T14:19:31;18.10;;;11.60;;
1358;SDS011;673;48.098;14.422;2022-11-20T14:22:09;21.10;;;14.07;;
1358;SDS011;673;48.098;14.422;2022-11-20T14:24:43;21.73;;;13.63;;
1358;SDS011;673;48.098;14.422;2022-11-20T14:27:11;23.37;;;15.60;;
1358;SDS011;673;48.098;14.422;2022-11-20T14:29:45;28.13;;;16.97;;
1358;SDS011;673;48.098;14.422;2022-11-20T14:32:16;21.57;;;14.90;;
1358;SDS011;673;48.098;14.422;2022-11-20T14:34:46;21.57;;;16.70;;
1358;SDS011;673;48.098;14.422;2022-11-20T14:37:17;29.70;;;16.30;;
1358;SDS011;673;48.098;14.422;2022-11-20T14:39:48;25.67;;;18.50;;
1358;SDS011;673;48.098;14.422;2022-11-20T14:42:18;24.43;;;16.73;;
1358;SDS011;673;48.098;14.422;2022-11-20T14:44:48;26.77;;;18.17;;
1358;SDS011;673;48.098;14.422;2022-11-20T14:47:17;27.83;;;18.10;;
1358;SDS011;673;48.098;14.422;2022-11-20T14:49:48;20.57;;;15.17;;
1358;SDS011;673;48.098;14.422;2022-11-20T14:52:17;23.33;;;16.07;;
1358;SDS011;673;48.098;14.422;2022-11-20T14:54:46;20.40;;;15.97;;
1358;SDS011;673;48.098;14.422;2022-11-20T14:57:21;21.30;;;15.83;;
1358;SDS011;673;48.098;14.422;2022-11-20T15:00:02;23.40;;;17.43;;
1358;SDS011;673;48.098;14.422;2022-11-20T15:02:44;21.73;;;14.80;;
1358;SDS011;673;48.098;14.422;2022-11-20T15:05:13;28.70;;;18.10;;
1358;SDS011;673;48.098;14.422;2022-11-20T15:07:41;30.00;;;17.50;;
1358;SDS011;673;48.098;14.422;2022-11-20T15:10:12;32.37;;;17.83;;
1358;SDS011;673;48.098;14.422;2022-11-20T15:12:46;22.60;;;17.87;;
1358;SDS011;673;48.098;14.422;2022-11-20T15:15:16;30.07;;;16.80;;